Dowling, Michigan
Current Conditions -  °F | °C
As of 11:53 PM on Saturday 22 Nov 2014 (Local Time) from KBTL Reporting Station
Overcast Overcast  
Wind Chill: 51°   Ceiling: 2200
Heat Index: 51°   Visibility: 10mi
Dew Point: 44°   Wind: 13mph
Humidity: 77%   Direction: 220°SW
Pressure: 29.91"   Gusts: NA
Location:  42.52°N, 85.25°W
Report Text: KBTL 230453Z 22011KT 10SM OVC022 11/07 A2991 RMK AO2 SLP133 T01060067 401061039 $
Loading
Personal Weather Stations






























Interactive Weather Map New forecast layout! Learn more

10-Day Weather Forecast

Advertisements
Track Severe Weather on mobile